CST,Max TemperatureF,Mean TemperatureF,Min TemperatureF,Max Dew PointF,MeanDew PointF,Min DewpointF,Max Humidity, Mean Humidity, Min Humidity, Max Sea Level PressureIn, Mean Sea Level PressureIn, Min Sea Level PressureIn, Max VisibilityMiles, Mean VisibilityMiles, Min VisibilityMiles, Max Wind SpeedMPH, Mean Wind SpeedMPH, Max Gust SpeedMPH,PrecipitationIn, CloudCover, Events, WindDirDegrees
2012-12-1,51,42,32,45,35,28,93,84,62,30.01,29.82,29.72,10,5,2,20,9,26,0.00,3,,154
2012-12-2,55,40,24,39,32,21,93,75,51,29.99,29.89,29.75,10,7,3,22,4,26,0.00,0,,149
2012-12-3,55,46,37,50,37,23,94,71,46,29.99,29.74,29.57,10,7,1,28,17,39,0.00,4,,224
2012-12-4,37,27,17,21,16,10,80,62,41,30.40,30.21,29.99,10,10,10,17,4,23,0.00,0,,295
2012-12-5,46,30,15,28,18,9,79,58,42,30.40,30.11,29.81,10,10,10,29,9,36,0.00,2,,140
2012-12-6,46,38,30,36,29,19,87,66,50,30.02,29.90,29.78,10,10,10,25,15,32,0.05,4,Rain,281
2012-12-7,30,26,23,25,21,19,93,78,64,30.05,30.02,29.98,10,8,2,12,1,,0.02,6,Snow,24
2012-12-8,32,24,17,28,23,14,93,88,80,30.05,29.99,29.91,10,6,0,12,1,18,0.01,6,Fog-Snow,124
2012-12-9,33,20,5,30,23,1,93,90,79,29.99,29.86,29.77,10,3,0,30,12,39,0.17,8,Snow,188
2012-12-10,17,6,-5,12,-3,-9,85,77,66,30.00,29.94,29.82,10,9,2,26,14,37,0.00,3,Snow,290
2012-12-11,26,16,-11,23,11,-22,86,81,59,29.96,29.88,29.79,10,8,0,8,0,,0.00,5,Fog-Snow,255
2012-12-12,,,,,,,,,,29.95,29.87,29.82,10,10,4,21,8,24,0.00,1,,164
2012-12-13,24,19,14,16,13,9,80,75,69,30.12,30.00,29.88,10,10,7,15,7,17,0.00,0,,246
2012-12-14,44,28,12,30,20,9,85,69,53,30.13,29.93,29.70,10,9,7,15,2,,0.00,1,,119
2012-12-15,41,36,30,37,33,27,87,83,65,29.69,29.57,29.49,10,4,0,18,5,25,0.35,8,Fog-Rain-Snow,289
2012-12-16,30,24,17,25,17,10,86,78,73,29.82,29.76,29.63,10,7,2,20,15,26,0.00,8,Snow,301
2012-12-17,30,26,21,27,21,18,86,82,74,29.81,29.73,29.66,10,5,0,6,0,,0.00,8,Snow,180
2012-12-18,33,30,28,28,26,25,86,81,75,29.85,29.68,29.57,10,4,2,14,2,,0.00,8,Snow,87
2012-12-19,35,27,19,27,21,14,86,77,64,30.02,29.94,29.85,10,8,1,17,2,22,0.01,3,Snow,320
2012-12-20,24,17,10,18,13,3,86,78,73,30.12,29.97,29.90,5,2,1,32,21,39,0.00,8,Snow,309
2012-12-21,17,12,6,10,4,0,79,71,63,30.30,30.22,30.12,10,9,4,22,12,26,0.00,3,,286
2012-12-22,28,20,12,18,11,7,79,69,58,30.14,30.03,29.95,10,10,10,16,6,9,0.00,0,,287
2012-12-23,19,14,10,12,9,5,85,73,63,30.12,30.06,30.00,10,9,5,14,8,10,0.00,3,Snow,345
2012-12-24,17,8,0,10,3,-9,79,71,66,30.31,30.12,29.98,10,9,1,21,9,25,0.00,6,Snow,311
2012-12-25,8,2,-4,0,-7,-11,72,68,66,30.49,30.43,30.32,10,10,10,15,10,21,0.00,0,,304
2012-12-26,15,8,1,3,0,-6,78,68,57,30.39,30.29,30.22,10,10,10,6,0,,0.00,3,,310
2012-12-27,21,14,8,18,9,1,86,76,63,30.23,30.16,30.09,10,6,1,10,1,,0.01,7,Snow,60
2012-12-28,23,16,8,16,12,3,86,80,68,30.09,30.04,30.00,10,7,2,10,4,,0.00,7,Snow,319
2012-12-29,17,9,1,12,5,-4,85,76,67,30.17,30.11,30.04,10,8,3,10,4,,0.00,3,Snow,269
2012-12-30,28,16,3,18,8,-4,80,72,59,30.18,30.04,29.88,10,10,10,21,5,25,0.00,0,,190
2012-12-31,21,10,-2,16,2,-9,80,66,49,30.27,30.19,30.05,10,10,7,22,13,28,0.00,1,,307